Terminal Aerodrome Forecast
Issued by NWS

Current Version | Previous Version | Text Only | Print | Product List | Glossary On
Versions: 1 2 3 4 5 6 7 8 9 10 11 12
000
FTUS44 KEPZ 282300
TAFDMN
TAF
KDMN 282320Z 2900/2924 23007KT P6SM SCT250
     FM290800 05008KT P6SM SCT150 BKN250
     FM291600 06014G24KT P6SM SCT050 OVC100
     FM292000 08015G25KT P6SM VCSH BKN050 OVC080=

USA.gov is the U.S. government's official web portal to all federal, state and local government web resources and services.